LFOE 180530Z AUTO 21007KT 9999 BKN008 OVC012 16/14 Q1021 TEMPO 4000 -RADZ BKN010

ElémentsDécodage
LFOE Station météo située sur l'aérodrome de EVREUX Fauville
180530Z émis le 18 du mois à 05h30 UTC
AUTO Bulletin édité par un automate
21007KT vent du 210°, 07 noeuds
9999 visibilité horizontale supérieure à 10 Km
BKN008 nuages morcelés (5/8 à 7/8) à 800 pieds
OVC012 couverture nuageuse totale (8/8) à 1200 pieds
16/14 température 16°C, point de rosée 14°C
 soit une humidité relative de 88%
Q1021 la pression au niveau de la mer (QNH) est de 1021 hPa
TEMPO fluctuation temporaire prévue
4000 visibilité horizontale de 4000 mètres
-RADZ faible pluie, bruine
BKN010 nuages morcelés (5/8 à 7/8) à 1000 pieds